sensor_id;sensor_type;location;lat;lon;timestamp;P1;durP1;ratioP1;P2;durP2;ratioP2
7497;SDS011;3790;48.806;9.140;2023-02-12T00:00:53;15.57;;;11.50;;
7497;SDS011;3790;48.806;9.140;2023-02-12T00:05:53;16.13;;;10.83;;
7497;SDS011;3790;48.806;9.140;2023-02-12T00:10:54;13.23;;;9.87;;
7497;SDS011;3790;48.806;9.140;2023-02-12T00:15:54;12.50;;;10.67;;
7497;SDS011;3790;48.806;9.140;2023-02-12T00:20:57;13.67;;;10.47;;
7497;SDS011;3790;48.806;9.140;2023-02-12T00:25:58;12.43;;;10.23;;
7497;SDS011;3790;48.806;9.140;2023-02-12T00:31:03;16.97;;;11.30;;
7497;SDS011;3790;48.806;9.140;2023-02-12T00:36:05;13.10;;;9.93;;
7497;SDS011;3790;48.806;9.140;2023-02-12T00:41:06;17.93;;;11.17;;
7497;SDS011;3790;48.806;9.140;2023-02-12T00:46:07;11.27;;;9.97;;
7497;SDS011;3790;48.806;9.140;2023-02-12T00:51:08;14.10;;;11.13;;
7497;SDS011;3790;48.806;9.140;2023-02-12T00:56:09;16.53;;;11.00;;
7497;SDS011;3790;48.806;9.140;2023-02-12T01:01:09;14.47;;;11.10;;
7497;SDS011;3790;48.806;9.140;2023-02-12T01:06:12;13.77;;;11.50;;
7497;SDS011;3790;48.806;9.140;2023-02-12T01:11:13;15.17;;;11.60;;
7497;SDS011;3790;48.806;9.140;2023-02-12T01:16:15;16.00;;;11.43;;
7497;SDS011;3790;48.806;9.140;2023-02-12T01:21:19;16.40;;;11.83;;
7497;SDS011;3790;48.806;9.140;2023-02-12T01:26:22;20.03;;;12.80;;
7497;SDS011;3790;48.806;9.140;2023-02-12T01:31:24;16.73;;;12.30;;
7497;SDS011;3790;48.806;9.140;2023-02-12T01:36:27;16.87;;;11.83;;
7497;SDS011;3790;48.806;9.140;2023-02-12T01:41:30;14.40;;;12.30;;
7497;SDS011;3790;48.806;9.140;2023-02-12T01:46:34;17.23;;;13.27;;
7497;SDS011;3790;48.806;9.140;2023-02-12T01:51:34;17.37;;;12.67;;
7497;SDS011;3790;48.806;9.140;2023-02-12T01:56:35;21.07;;;13.27;;
7497;SDS011;3790;48.806;9.140;2023-02-12T02:01:37;17.93;;;13.20;;
7497;SDS011;3790;48.806;9.140;2023-02-12T02:06:41;21.93;;;13.73;;
7497;SDS011;3790;48.806;9.140;2023-02-12T02:11:48;17.23;;;12.20;;
7497;SDS011;3790;48.806;9.140;2023-02-12T02:22:37;17.00;;;13.10;;
7497;SDS011;3790;48.806;9.140;2023-02-12T02:27:56;15.43;;;11.90;;
7497;SDS011;3790;48.806;9.140;2023-02-12T02:33:13;17.17;;;12.13;;
7497;SDS011;3790;48.806;9.140;2023-02-12T02:38:33;13.80;;;11.77;;
7497;SDS011;3790;48.806;9.140;2023-02-12T02:43:48;18.60;;;12.70;;
7497;SDS011;3790;48.806;9.140;2023-02-12T02:48:56;16.07;;;12.77;;
7497;SDS011;3790;48.806;9.140;2023-02-12T02:54:02;21.87;;;12.27;;
7497;SDS011;3790;48.806;9.140;2023-02-12T02:59:09;17.10;;;12.40;;
7497;SDS011;3790;48.806;9.140;2023-02-12T03:04:19;16.40;;;11.13;;
7497;SDS011;3790;48.806;9.140;2023-02-12T03:09:28;13.80;;;11.00;;
7497;SDS011;3790;48.806;9.140;2023-02-12T03:14:38;13.77;;;10.70;;
7497;SDS011;3790;48.806;9.140;2023-02-12T03:19:45;17.03;;;10.67;;
7497;SDS011;3790;48.806;9.140;2023-02-12T03:25:02;12.33;;;9.47;;
7497;SDS011;3790;48.806;9.140;2023-02-12T03:30:09;12.70;;;9.53;;
7497;SDS011;3790;48.806;9.140;2023-02-12T03:40:22;14.90;;;11.00;;
7497;SDS011;3790;48.806;9.140;2023-02-12T03:45:39;14.77;;;11.23;;
7497;SDS011;3790;48.806;9.140;2023-02-12T03:51:01;14.00;;;11.17;;
7497;SDS011;3790;48.806;9.140;2023-02-12T03:56:12;16.57;;;10.47;;
7497;SDS011;3790;48.806;9.140;2023-02-12T04:01:18;15.40;;;12.27;;
7497;SDS011;3790;48.806;9.140;2023-02-12T04:06:20;15.37;;;12.33;;
7497;SDS011;3790;48.806;9.140;2023-02-12T04:16:51;17.43;;;12.70;;
7497;SDS011;3790;48.806;9.140;2023-02-12T04:22:10;18.83;;;12.27;;
7497;SDS011;3790;48.806;9.140;2023-02-12T04:27:32;14.07;;;11.70;;
7497;SDS011;3790;48.806;9.140;2023-02-12T04:32:42;14.17;;;11.13;;
7497;SDS011;3790;48.806;9.140;2023-02-12T04:37:51;13.77;;;10.70;;
7497;SDS011;3790;48.806;9.140;2023-02-12T04:42:58;15.53;;;10.70;;
7497;SDS011;3790;48.806;9.140;2023-02-12T04:47:59;15.37;;;11.30;;
7497;SDS011;3790;48.806;9.140;2023-02-12T04:53:00;14.50;;;11.47;;
7497;SDS011;3790;48.806;9.140;2023-02-12T04:58:01;18.47;;;12.87;;
7497;SDS011;3790;48.806;9.140;2023-02-12T05:03:01;15.80;;;11.83;;
7497;SDS011;3790;48.806;9.140;2023-02-12T05:08:02;16.70;;;12.57;;
7497;SDS011;3790;48.806;9.140;2023-02-12T05:13:02;15.43;;;12.50;;
7497;SDS011;3790;48.806;9.140;2023-02-12T05:18:03;15.50;;;11.63;;
7497;SDS011;3790;48.806;9.140;2023-02-12T05:23:03;14.77;;;12.70;;
7497;SDS011;3790;48.806;9.140;2023-02-12T05:28:04;17.43;;;12.27;;
7497;SDS011;3790;48.806;9.140;2023-02-12T05:33:04;16.83;;;13.10;;
7497;SDS011;3790;48.806;9.140;2023-02-12T05:38:05;21.40;;;14.13;;
7497;SDS011;3790;48.806;9.140;2023-02-12T05:43:05;18.63;;;13.93;;
7497;SDS011;3790;48.806;9.140;2023-02-12T05:48:06;18.17;;;13.77;;
7497;SDS011;3790;48.806;9.140;2023-02-12T05:53:07;19.67;;;13.37;;
7497;SDS011;3790;48.806;9.140;2023-02-12T05:58:07;20.20;;;13.67;;
7497;SDS011;3790;48.806;9.140;2023-02-12T06:03:08;19.97;;;14.20;;
7497;SDS011;3790;48.806;9.140;2023-02-12T06:08:08;17.60;;;13.10;;
7497;SDS011;3790;48.806;9.140;2023-02-12T06:13:09;16.53;;;12.53;;
7497;SDS011;3790;48.806;9.140;2023-02-12T06:18:09;17.03;;;13.47;;
7497;SDS011;3790;48.806;9.140;2023-02-12T06:23:10;15.27;;;13.10;;
7497;SDS011;3790;48.806;9.140;2023-02-12T06:28:10;18.07;;;13.33;;
7497;SDS011;3790;48.806;9.140;2023-02-12T06:33:11;19.27;;;13.40;;
7497;SDS011;3790;48.806;9.140;2023-02-12T06:38:11;18.40;;;13.93;;
7497;SDS011;3790;48.806;9.140;2023-02-12T06:43:12;15.23;;;13.00;;
7497;SDS011;3790;48.806;9.140;2023-02-12T06:48:12;17.93;;;13.50;;
7497;SDS011;3790;48.806;9.140;2023-02-12T06:53:13;16.27;;;11.83;;
7497;SDS011;3790;48.806;9.140;2023-02-12T06:58:13;14.40;;;11.30;;
7497;SDS011;3790;48.806;9.140;2023-02-12T07:03:14;14.37;;;11.80;;
7497;SDS011;3790;48.806;9.140;2023-02-12T07:08:14;13.23;;;11.83;;
7497;SDS011;3790;48.806;9.140;2023-02-12T07:13:15;13.77;;;12.30;;
7497;SDS011;3790;48.806;9.140;2023-02-12T07:18:15;19.97;;;12.73;;
7497;SDS011;3790;48.806;9.140;2023-02-12T07:23:16;17.40;;;12.27;;
7497;SDS011;3790;48.806;9.140;2023-02-12T07:28:16;20.43;;;14.13;;
7497;SDS011;3790;48.806;9.140;2023-02-12T07:33:17;15.53;;;12.20;;
7497;SDS011;3790;48.806;9.140;2023-02-12T07:38:18;19.67;;;12.93;;
7497;SDS011;3790;48.806;9.140;2023-02-12T07:43:18;19.73;;;11.63;;
7497;SDS011;3790;48.806;9.140;2023-02-12T07:48:19;17.83;;;12.97;;
7497;SDS011;3790;48.806;9.140;2023-02-12T07:53:19;19.63;;;13.37;;
7497;SDS011;3790;48.806;9.140;2023-02-12T07:58:20;16.63;;;13.27;;
7497;SDS011;3790;48.806;9.140;2023-02-12T08:03:20;16.93;;;13.47;;
7497;SDS011;3790;48.806;9.140;2023-02-12T08:08:21;16.23;;;13.07;;
7497;SDS011;3790;48.806;9.140;2023-02-12T08:13:21;19.20;;;13.43;;
7497;SDS011;3790;48.806;9.140;2023-02-12T08:18:22;20.47;;;14.80;;
7497;SDS011;3790;48.806;9.140;2023-02-12T08:23:22;15.83;;;13.33;;
7497;SDS011;3790;48.806;9.140;2023-02-12T08:28:23;15.23;;;12.90;;
7497;SDS011;3790;48.806;9.140;2023-02-12T08:33:23;18.97;;;13.23;;
7497;SDS011;3790;48.806;9.140;2023-02-12T08:38:24;15.70;;;13.07;;
7497;SDS011;3790;48.806;9.140;2023-02-12T08:43:24;18.30;;;14.13;;
7497;SDS011;3790;48.806;9.140;2023-02-12T08:48:26;18.63;;;14.97;;
7497;SDS011;3790;48.806;9.140;2023-02-12T08:53:26;22.17;;;15.30;;
7497;SDS011;3790;48.806;9.140;2023-02-12T08:58:27;16.33;;;13.27;;
7497;SDS011;3790;48.806;9.140;2023-02-12T09:03:27;18.07;;;13.87;;
7497;SDS011;3790;48.806;9.140;2023-02-12T09:08:28;17.23;;;13.93;;
7497;SDS011;3790;48.806;9.140;2023-02-12T09:13:29;16.60;;;13.97;;
7497;SDS011;3790;48.806;9.140;2023-02-12T09:18:30;17.37;;;14.73;;
7497;SDS011;3790;48.806;9.140;2023-02-12T09:23:31;20.10;;;15.30;;
7497;SDS011;3790;48.806;9.140;2023-02-12T09:28:32;20.97;;;14.27;;
7497;SDS011;3790;48.806;9.140;2023-02-12T09:33:33;23.07;;;16.53;;
7497;SDS011;3790;48.806;9.140;2023-02-12T09:38:34;16.57;;;14.33;;
7497;SDS011;3790;48.806;9.140;2023-02-12T09:54:14;18.43;;;14.53;;
7497;SDS011;3790;48.806;9.140;2023-02-12T09:59:34;17.33;;;12.00;;
7497;SDS011;3790;48.806;9.140;2023-02-12T10:04:49;15.60;;;11.80;;
7497;SDS011;3790;48.806;9.140;2023-02-12T10:09:57;16.50;;;13.13;;
7497;SDS011;3790;48.806;9.140;2023-02-12T10:20:53;18.43;;;12.33;;
7497;SDS011;3790;48.806;9.140;2023-02-12T10:26:30;12.00;;;10.60;;
7497;SDS011;3790;48.806;9.140;2023-02-12T10:31:36;13.63;;;10.90;;
7497;SDS011;3790;48.806;9.140;2023-02-12T10:36:42;9.17;;;8.20;;
7497;SDS011;3790;48.806;9.140;2023-02-12T10:41:45;12.00;;;8.10;;
7497;SDS011;3790;48.806;9.140;2023-02-12T10:47:02;8.73;;;7.83;;
7497;SDS011;3790;48.806;9.140;2023-02-12T10:52:29;10.70;;;8.20;;
7497;SDS011;3790;48.806;9.140;2023-02-12T10:57:44;11.90;;;8.00;;
7497;SDS011;3790;48.806;9.140;2023-02-12T11:02:58;9.93;;;8.00;;
7497;SDS011;3790;48.806;9.140;2023-02-12T11:08:04;7.53;;;6.57;;
7497;SDS011;3790;48.806;9.140;2023-02-12T11:13:06;8.03;;;6.60;;
7497;SDS011;3790;48.806;9.140;2023-02-12T11:18:24;7.37;;;5.47;;
7497;SDS011;3790;48.806;9.140;2023-02-12T11:23:35;6.73;;;5.23;;
7497;SDS011;3790;48.806;9.140;2023-02-12T11:28:38;5.87;;;3.90;;
7497;SDS011;3790;48.806;9.140;2023-02-12T11:34:07;6.10;;;4.00;;
7497;SDS011;3790;48.806;9.140;2023-02-12T11:39:15;6.00;;;3.63;;
7497;SDS011;3790;48.806;9.140;2023-02-12T11:44:36;5.27;;;3.63;;
7497;SDS011;3790;48.806;9.140;2023-02-12T11:49:49;7.07;;;3.57;;
7497;SDS011;3790;48.806;9.140;2023-02-12T11:54:56;5.07;;;3.20;;
7497;SDS011;3790;48.806;9.140;2023-02-12T12:00:00;13.00;;;3.07;;
7497;SDS011;3790;48.806;9.140;2023-02-12T12:05:07;5.90;;;3.43;;
7497;SDS011;3790;48.806;9.140;2023-02-12T12:10:14;3.80;;;2.77;;
7497;SDS011;3790;48.806;9.140;2023-02-12T12:15:35;5.90;;;2.97;;
7497;SDS011;3790;48.806;9.140;2023-02-12T12:21:01;6.97;;;3.70;;
7497;SDS011;3790;48.806;9.140;2023-02-12T12:26:27;3.63;;;2.63;;
7497;SDS011;3790;48.806;9.140;2023-02-12T12:31:34;5.77;;;3.73;;
7497;SDS011;3790;48.806;9.140;2023-02-12T12:52:41;5.40;;;2.90;;
7497;SDS011;3790;48.806;9.140;2023-02-12T13:03:32;5.87;;;3.13;;
7497;SDS011;3790;48.806;9.140;2023-02-12T13:25:06;4.70;;;3.03;;
7497;SDS011;3790;48.806;9.140;2023-02-12T13:30:26;3.27;;;2.60;;
7497;SDS011;3790;48.806;9.140;2023-02-12T13:35:33;6.07;;;3.27;;
7497;SDS011;3790;48.806;9.140;2023-02-12T13:40:36;4.40;;;2.70;;
7497;SDS011;3790;48.806;9.140;2023-02-12T13:45:48;5.23;;;2.90;;
7497;SDS011;3790;48.806;9.140;2023-02-12T13:51:20;5.27;;;2.90;;
7497;SDS011;3790;48.806;9.140;2023-02-12T13:56:40;6.63;;;3.17;;
7497;SDS011;3790;48.806;9.140;2023-02-12T14:01:49;4.43;;;2.83;;
7497;SDS011;3790;48.806;9.140;2023-02-12T14:06:54;4.50;;;2.90;;
7497;SDS011;3790;48.806;9.140;2023-02-12T14:12:03;4.63;;;2.67;;
7497;SDS011;3790;48.806;9.140;2023-02-12T14:37:55;4.20;;;2.20;;
7497;SDS011;3790;48.806;9.140;2023-02-12T14:42:57;3.33;;;1.87;;
7497;SDS011;3790;48.806;9.140;2023-02-12T14:47:58;1.60;;;1.10;;
7497;SDS011;3790;48.806;9.140;2023-02-12T14:53:03;3.73;;;1.73;;
7497;SDS011;3790;48.806;9.140;2023-02-12T14:58:21;2.47;;;1.60;;
7497;SDS011;3790;48.806;9.140;2023-02-12T15:03:28;2.40;;;1.50;;
7497;SDS011;3790;48.806;9.140;2023-02-12T15:14:06;2.80;;;1.57;;
7497;SDS011;3790;48.806;9.140;2023-02-12T15:19:19;4.53;;;1.60;;
7497;SDS011;3790;48.806;9.140;2023-02-12T15:24:40;2.90;;;1.50;;
7497;SDS011;3790;48.806;9.140;2023-02-12T15:29:42;1.73;;;1.37;;
7497;SDS011;3790;48.806;9.140;2023-02-12T15:34:47;2.70;;;1.60;;
7497;SDS011;3790;48.806;9.140;2023-02-12T15:39:51;2.23;;;1.60;;
7497;SDS011;3790;48.806;9.140;2023-02-12T15:50:14;1.70;;;1.10;;
7497;SDS011;3790;48.806;9.140;2023-02-12T15:55:17;1.63;;;1.10;;
7497;SDS011;3790;48.806;9.140;2023-02-12T16:00:28;2.57;;;1.30;;
7497;SDS011;3790;48.806;9.140;2023-02-12T16:05:43;1.80;;;1.20;;
7497;SDS011;3790;48.806;9.140;2023-02-12T16:10:44;2.70;;;1.70;;
7497;SDS011;3790;48.806;9.140;2023-02-12T16:16:02;5.20;;;2.33;;
7497;SDS011;3790;48.806;9.140;2023-02-12T16:21:15;2.90;;;1.93;;
7497;SDS011;3790;48.806;9.140;2023-02-12T16:26:20;4.57;;;3.13;;
7497;SDS011;3790;48.806;9.140;2023-02-12T16:31:24;3.93;;;2.70;;
7497;SDS011;3790;48.806;9.140;2023-02-12T16:36:27;6.90;;;4.80;;
7497;SDS011;3790;48.806;9.140;2023-02-12T16:41:30;5.10;;;2.63;;
7497;SDS011;3790;48.806;9.140;2023-02-12T16:46:50;2.43;;;1.47;;
7497;SDS011;3790;48.806;9.140;2023-02-12T16:52:17;3.50;;;2.13;;
7497;SDS011;3790;48.806;9.140;2023-02-12T16:57:19;2.83;;;1.90;;
7497;SDS011;3790;48.806;9.140;2023-02-12T17:02:19;4.97;;;3.63;;
7497;SDS011;3790;48.806;9.140;2023-02-12T17:07:21;6.43;;;3.47;;
7497;SDS011;3790;48.806;9.140;2023-02-12T17:12:23;4.80;;;3.27;;
7497;SDS011;3790;48.806;9.140;2023-02-12T17:17:24;5.83;;;3.73;;
7497;SDS011;3790;48.806;9.140;2023-02-12T17:22:25;6.20;;;4.13;;
7497;SDS011;3790;48.806;9.140;2023-02-12T17:27:26;6.83;;;3.83;;
7497;SDS011;3790;48.806;9.140;2023-02-12T17:32:26;7.33;;;4.47;;
7497;SDS011;3790;48.806;9.140;2023-02-12T17:37:28;6.63;;;4.07;;
7497;SDS011;3790;48.806;9.140;2023-02-12T17:42:28;13.30;;;7.77;;
7497;SDS011;3790;48.806;9.140;2023-02-12T17:47:29;19.63;;;9.97;;
7497;SDS011;3790;48.806;9.140;2023-02-12T17:52:30;11.27;;;6.83;;
7497;SDS011;3790;48.806;9.140;2023-02-12T17:57:30;8.37;;;6.03;;
7497;SDS011;3790;48.806;9.140;2023-02-12T18:02:31;7.50;;;4.53;;
7497;SDS011;3790;48.806;9.140;2023-02-12T18:07:32;7.70;;;4.73;;
7497;SDS011;3790;48.806;9.140;2023-02-12T18:12:33;11.10;;;6.53;;
7497;SDS011;3790;48.806;9.140;2023-02-12T18:17:34;11.23;;;5.90;;
7497;SDS011;3790;48.806;9.140;2023-02-12T18:22:36;7.23;;;5.40;;
7497;SDS011;3790;48.806;9.140;2023-02-12T18:27:36;7.97;;;4.73;;
7497;SDS011;3790;48.806;9.140;2023-02-12T18:32:38;7.53;;;5.60;;
7497;SDS011;3790;48.806;9.140;2023-02-12T18:37:39;7.73;;;5.93;;
7497;SDS011;3790;48.806;9.140;2023-02-12T18:42:40;6.93;;;5.67;;
7497;SDS011;3790;48.806;9.140;2023-02-12T18:47:41;12.87;;;8.27;;
7497;SDS011;3790;48.806;9.140;2023-02-12T18:52:41;12.73;;;6.40;;
7497;SDS011;3790;48.806;9.140;2023-02-12T18:57:42;7.43;;;5.90;;
7497;SDS011;3790;48.806;9.140;2023-02-12T19:02:42;11.60;;;6.50;;
7497;SDS011;3790;48.806;9.140;2023-02-12T19:07:43;13.30;;;8.23;;
7497;SDS011;3790;48.806;9.140;2023-02-12T19:12:43;8.77;;;6.47;;
7497;SDS011;3790;48.806;9.140;2023-02-12T19:17:44;8.23;;;6.33;;
7497;SDS011;3790;48.806;9.140;2023-02-12T19:22:44;9.13;;;6.57;;
7497;SDS011;3790;48.806;9.140;2023-02-12T19:27:45;11.10;;;7.90;;
7497;SDS011;3790;48.806;9.140;2023-02-12T19:32:45;10.73;;;7.73;;
7497;SDS011;3790;48.806;9.140;2023-02-12T19:37:46;6.93;;;5.53;;
7497;SDS011;3790;48.806;9.140;2023-02-12T19:42:46;13.33;;;9.73;;
7497;SDS011;3790;48.806;9.140;2023-02-12T19:47:47;13.80;;;8.73;;
7497;SDS011;3790;48.806;9.140;2023-02-12T19:52:49;14.67;;;11.37;;
7497;SDS011;3790;48.806;9.140;2023-02-12T19:57:50;10.13;;;7.17;;
7497;SDS011;3790;48.806;9.140;2023-02-12T20:02:50;14.33;;;7.57;;
7497;SDS011;3790;48.806;9.140;2023-02-12T20:07:51;9.60;;;6.17;;
7497;SDS011;3790;48.806;9.140;2023-02-12T20:12:51;9.17;;;6.23;;
7497;SDS011;3790;48.806;9.140;2023-02-12T20:17:52;11.63;;;7.57;;
7497;SDS011;3790;48.806;9.140;2023-02-12T20:22:52;38.43;;;19.70;;
7497;SDS011;3790;48.806;9.140;2023-02-12T20:27:53;17.00;;;11.90;;
7497;SDS011;3790;48.806;9.140;2023-02-12T20:32:53;15.47;;;11.83;;
7497;SDS011;3790;48.806;9.140;2023-02-12T20:37:54;18.70;;;14.60;;
7497;SDS011;3790;48.806;9.140;2023-02-12T20:42:54;50.27;;;35.30;;
7497;SDS011;3790;48.806;9.140;2023-02-12T20:47:55;10.07;;;8.17;;
7497;SDS011;3790;48.806;9.140;2023-02-12T20:52:55;12.67;;;7.97;;
7497;SDS011;3790;48.806;9.140;2023-02-12T20:57:56;13.53;;;9.80;;
7497;SDS011;3790;48.806;9.140;2023-02-12T21:02:56;52.93;;;34.63;;
7497;SDS011;3790;48.806;9.140;2023-02-12T21:07:59;26.53;;;18.17;;
7497;SDS011;3790;48.806;9.140;2023-02-12T21:13:00;38.73;;;22.93;;
7497;SDS011;3790;48.806;9.140;2023-02-12T21:18:00;22.57;;;14.50;;
7497;SDS011;3790;48.806;9.140;2023-02-12T21:23:01;23.93;;;18.17;;
7497;SDS011;3790;48.806;9.140;2023-02-12T21:28:01;11.73;;;8.43;;
7497;SDS011;3790;48.806;9.140;2023-02-12T21:33:02;23.33;;;16.50;;
7497;SDS011;3790;48.806;9.140;2023-02-12T21:38:03;19.93;;;10.23;;
7497;SDS011;3790;48.806;9.140;2023-02-12T21:43:03;19.40;;;13.53;;
7497;SDS011;3790;48.806;9.140;2023-02-12T21:48:04;19.20;;;9.20;;
7497;SDS011;3790;48.806;9.140;2023-02-12T21:53:04;32.20;;;20.30;;
7497;SDS011;3790;48.806;9.140;2023-02-12T21:58:05;24.80;;;18.73;;
7497;SDS011;3790;48.806;9.140;2023-02-12T22:03:05;18.60;;;13.70;;
7497;SDS011;3790;48.806;9.140;2023-02-12T22:08:06;25.67;;;17.63;;
7497;SDS011;3790;48.806;9.140;2023-02-12T22:13:06;27.10;;;17.70;;
7497;SDS011;3790;48.806;9.140;2023-02-12T22:18:07;36.43;;;23.07;;
7497;SDS011;3790;48.806;9.140;2023-02-12T22:23:07;21.63;;;14.77;;
7497;SDS011;3790;48.806;9.140;2023-02-12T22:28:09;19.97;;;13.67;;
7497;SDS011;3790;48.806;9.140;2023-02-12T22:33:10;23.70;;;16.20;;
7497;SDS011;3790;48.806;9.140;2023-02-12T22:38:11;18.43;;;13.73;;
7497;SDS011;3790;48.806;9.140;2023-02-12T22:43:11;18.70;;;13.90;;
7497;SDS011;3790;48.806;9.140;2023-02-12T22:48:12;18.57;;;13.93;;
7497;SDS011;3790;48.806;9.140;2023-02-12T22:53:12;21.97;;;14.40;;
7497;SDS011;3790;48.806;9.140;2023-02-12T22:58:13;16.43;;;12.77;;
7497;SDS011;3790;48.806;9.140;2023-02-12T23:03:15;15.17;;;12.17;;
7497;SDS011;3790;48.806;9.140;2023-02-12T23:08:15;17.17;;;13.30;;
7497;SDS011;3790;48.806;9.140;2023-02-12T23:13:15;15.93;;;13.03;;
7497;SDS011;3790;48.806;9.140;2023-02-12T23:18:16;19.20;;;13.80;;
7497;SDS011;3790;48.806;9.140;2023-02-12T23:23:17;16.80;;;12.63;;
7497;SDS011;3790;48.806;9.140;2023-02-12T23:28:19;19.50;;;13.80;;
7497;SDS011;3790;48.806;9.140;2023-02-12T23:33:20;22.93;;;15.63;;
7497;SDS011;3790;48.806;9.140;2023-02-12T23:38:21;18.40;;;14.37;;
7497;SDS011;3790;48.806;9.140;2023-02-12T23:43:22;21.07;;;14.93;;
7497;SDS011;3790;48.806;9.140;2023-02-12T23:48:22;19.60;;;14.37;;
7497;SDS011;3790;48.806;9.140;2023-02-12T23:53:23;18.37;;;14.03;;
7497;SDS011;3790;48.806;9.140;2023-02-12T23:58:23;19.43;;;14.90;;
